Time;durP1;ratioP1;P1;durP2;ratioP2;P2;SDS_P1;SDS_P2;PMS_P1;PMS_P2;Temp;Humidity;BMP_temperature;BMP_pressure;BME280_temperature;BME280_humidity;BME280_pressure;Samples;Min_cycle;Max_cycle;Signal;HPM_P1;HPM_P2
2023/09/16 00:06:31;976428.00;3.25;1690.77;0.00;0.00;0.62;;;;;21.90;1.00;;;;;;2305637;55;3693;-88
2023/09/16 00:09:00;355270.00;1.18;612.92;0.00;0.00;0.62;;;;;22.20;1.00;;;;;;2316400;40;3604;-89
2023/09/16 00:24:05;1292964.00;4.31;2259.23;70973.00;0.24;123.44;;;;;22.10;1.00;;;;;;2287013;55;3657;-90
2023/09/16 00:26:34;543138.00;1.81;936.13;70042.00;0.23;121.83;;;;;22.10;1.00;;;;;;2299619;56;3727;-90
2023/09/16 01:31:31;1892026.00;6.31;3404.92;40094.00;0.13;70.05;;;;;20.20;6.30;;;;;;2274047;61;1107;-92
2023/09/16 03:08:57;1074559.00;3.58;1864.99;0.00;0.00;0.62;;;;;20.30;4.10;;;;;;2274703;61;1360;-91
2023/09/16 03:11:24;201786.00;0.67;349.00;0.00;0.00;0.62;;;;;20.00;4.60;;;;;;2273204;61;1630;-89
2023/09/16 06:11:28;870340.00;2.90;1504.09;0.00;0.00;0.62;;;;;25.40;1.00;;;;;;2334459;55;3626;-88
2023/09/16 06:22:16;1146434.00;3.82;1993.67;0.00;0.00;0.62;;;;;26.80;1.00;;;;;;2473019;55;4106;-90
2023/09/16 06:39:47;1530877.00;5.10;2701.36;66229.00;0.22;115.24;;;;;28.30;1.00;;;;;;2286818;40;3503;-88
2023/09/16 06:42:14;672447.00;2.24;1159.49;69497.00;0.23;120.89;;;;;28.70;1.00;;;;;;2276449;61;1792;-89
2023/09/16 06:44:41;270906.00;0.90;467.90;68197.00;0.23;118.64;;;;;29.00;1.00;;;;;;2279030;55;3769;-88
2023/09/16 06:52:12;1188071.00;3.96;2068.67;58382.00;0.19;101.68;;;;;30.00;1.00;;;;;;2290831;40;3664;-90
2023/09/16 06:54:39;725807.00;2.42;1252.02;72104.00;0.24;125.40;;;;;30.50;1.00;;;;;;2289767;55;3768;-90
2023/09/16 07:07:13;1479986.00;4.93;2605.52;0.00;0.00;0.62;;;;;29.20;1.00;;;;;;2274315;61;1064;-91
2023/09/16 07:09:42;954458.00;3.18;1651.97;0.00;0.00;0.62;;;;;29.40;1.00;;;;;;2283791;56;3788;-89
2023/09/16 07:12:09;716480.00;2.39;1235.83;8171.00;0.03;14.78;;;;;30.20;1.00;;;;;;2291983;56;3751;-90
2023/09/16 07:14:37;533315.00;1.78;919.20;20224.00;0.07;35.66;;;;;30.20;1.00;;;;;;2283537;39;3467;-89
2023/09/16 07:19:34;681131.00;2.27;1174.53;25719.00;0.09;45.17;;;;;31.30;1.00;;;;;;2274192;61;1398;-90
2023/09/16 07:22:01;481247.00;1.60;829.54;0.00;0.00;0.62;;;;;31.00;1.00;;;;;;2283752;56;3790;-89
2023/09/16 07:24:32;363108.00;1.21;626.39;0.00;0.00;0.62;;;;;31.20;1.00;;;;;;2276536;61;1079;-90
2023/09/16 07:29:29;745865.00;2.49;1286.87;11165.00;0.04;19.97;;;;;31.70;1.00;;;;;;2274198;61;1404;-89
2023/09/16 07:31:55;387939.00;1.29;669.07;24061.00;0.08;42.30;;;;;31.80;1.00;;;;;;2272517;61;984;-88
2023/09/16 07:34:23;329962.00;1.10;569.42;0.00;0.00;0.62;;;;;31.60;1.00;;;;;;2272645;61;1915;-88
2023/09/16 07:36:50;279461.00;0.93;482.61;0.00;0.00;0.62;;;;;31.50;1.00;;;;;;2272719;61;900;-88
2023/09/16 07:41:48;904887.00;3.02;1564.70;0.00;0.00;0.62;;;;;31.90;1.00;;;;;;2284732;39;3494;-88
2023/09/16 07:44:15;301179.00;1.00;519.95;13684.00;0.05;24.33;;;;;31.40;1.00;;;;;;2276601;61;1595;-90
2023/09/16 07:46:41;471086.00;1.57;812.06;0.00;0.00;0.62;;;;;31.40;1.00;;;;;;2278792;55;3757;-90
2023/09/16 07:51:45;90791.00;0.30;157.67;0.00;0.00;0.62;;;;;30.40;1.00;;;;;;2290956;56;1553;-89
2023/09/16 07:54:13;78066.00;0.26;135.70;0.00;0.00;0.62;;;;;30.80;1.00;;;;;;2292582;39;3543;-91
2023/09/16 07:56:40;53381.00;0.18;93.03;0.00;0.00;0.62;;;;;30.70;1.00;;;;;;2277275;61;1690;-90
2023/09/16 07:59:08;78905.00;0.26;137.15;0.00;0.00;0.62;;;;;30.50;1.00;;;;;;2277118;61;1309;-91
2023/09/16 08:01:35;148392.00;0.49;257.04;0.00;0.00;0.62;;;;;30.50;1.00;;;;;;2276462;61;1704;-88
2023/09/16 08:06:31;625485.00;2.08;1078.24;0.00;0.00;0.62;;;;;30.60;1.00;;;;;;2281327;55;3667;-89
2023/09/16 09:24:44;6518296.00;21.73;20788.22;1924824.00;6.42;3471.09;;;;;28.20;1.00;;;;;;2085098;40;3576;-88
2023/09/16 09:27:11;119361576.00;397.87;68887688.00;68773.00;0.23;119.64;;;;;28.20;1.00;;;;;;2283418;55;3762;-88
2023/09/16 09:34:37;356467.00;1.19;614.98;0.00;0.00;0.62;;;;;28.30;1.00;;;;;;2283336;60;1907;-88
2023/09/16 09:37:14;0.00;0.00;0.62;0.00;0.00;0.62;;;;;28.00;1.00;;;;;;2281224;60;2401;-89
2023/09/16 09:39:40;0.00;0.00;0.62;0.00;0.00;0.62;;;;;27.90;1.00;;;;;;2283124;60;1709;-87
2023/09/16 09:42:19;186678.00;0.62;322.99;34424.00;0.11;60.24;;;;;27.90;1.00;;;;;;2298187;39;3645;-88
2023/09/16 09:47:22;461216.00;1.54;795.08;0.00;0.00;0.62;;;;;28.20;1.00;;;;;;1837954;55;3609;-89
2023/09/16 09:49:49;327785.00;1.09;565.68;53242.00;0.18;92.79;;;;;28.30;1.00;;;;;;2304298;55;3784;-87
2023/09/16 09:52:16;155190.00;0.52;268.75;0.00;0.00;0.62;;;;;28.30;1.00;;;;;;2281132;61;1063;-91
2023/09/16 09:54:45;251162.00;0.84;433.95;48682.00;0.16;84.91;;;;;28.30;1.00;;;;;;2281073;61;2004;-90
2023/09/16 09:57:13;50890.00;0.17;88.73;0.00;0.00;0.62;;;;;28.60;1.00;;;;;;2281296;61;1708;-89
2023/09/16 09:59:41;518776.00;1.73;894.16;148859.00;0.50;257.84;;;;;28.50;1.00;;;;;;2281104;61;1293;-90
2023/09/16 10:02:09;27802.00;0.09;48.78;0.00;0.00;0.62;;;;;28.50;1.00;;;;;;2281098;61;1788;-90
2023/09/16 10:04:37;12457.00;0.04;22.21;0.00;0.00;0.62;;;;;28.70;1.00;;;;;;2281278;61;933;-88
2023/09/16 10:07:05;80718.00;0.27;140.28;0.00;0.00;0.62;;;;;28.30;1.00;;;;;;2281294;61;946;-86
2023/09/16 10:09:31;32267.00;0.11;56.51;0.00;0.00;0.62;;;;;27.70;1.00;;;;;;2281094;61;1380;-88
2023/09/16 10:11:59;231503.00;0.77;400.13;0.00;0.00;0.62;;;;;28.20;1.00;;;;;;2281220;61;1095;-89
2023/09/16 10:16:57;275965.00;0.92;476.60;0.00;0.00;0.62;;;;;28.60;1.00;;;;;;2279261;61;1332;-90
2023/09/16 10:19:24;35140.00;0.12;61.48;0.00;0.00;0.62;;;;;28.90;1.00;;;;;;2279549;55;3808;-89
2023/09/16 10:24:21;246550.00;0.82;426.02;0.00;0.00;0.62;;;;;28.80;1.00;;;;;;2279585;61;1344;-89
2023/09/16 10:26:49;41713.00;0.14;72.85;0.00;0.00;0.62;;;;;29.00;1.00;;;;;;2276919;61;1028;-90
2023/09/16 10:29:18;5280248.00;17.60;13973.65;2778839.00;9.26;5365.45;;;;;28.70;1.00;;;;;;2280964;39;3599;-89
2023/09/16 10:34:15;229633.00;0.77;396.92;0.00;0.00;0.62;;;;;28.60;1.00;;;;;;2278890;61;1968;-88
2023/09/16 10:39:15;181260.00;0.60;313.66;0.00;0.00;0.62;;;;;28.40;1.00;;;;;;2278432;61;1416;-90
2023/09/16 10:41:43;141599.00;0.47;245.33;0.00;0.00;0.62;;;;;28.90;1.00;;;;;;2277009;61;1261;-88
2023/09/16 10:44:13;54123.00;0.18;94.32;0.00;0.00;0.62;;;;;28.80;1.00;;;;;;2277075;61;966;-89
2023/09/16 10:46:40;84088.00;0.28;146.10;0.00;0.00;0.62;;;;;28.80;1.00;;;;;;2276940;61;923;-90
2023/09/16 10:49:07;152061.00;0.51;263.36;0.00;0.00;0.62;;;;;28.60;1.00;;;;;;2276965;61;1716;-88
2023/09/16 10:51:40;218496.00;0.73;377.76;0.00;0.00;0.62;;;;;28.40;1.00;;;;;;2276911;61;1044;-89
2023/09/16 10:56:44;0.00;0.00;0.62;0.00;0.00;0.62;;;;;27.90;1.00;;;;;;2279188;61;1987;-87
2023/09/16 10:59:13;110670.00;0.37;191.99;0.00;0.00;0.62;;;;;28.30;1.00;;;;;;2276825;61;1531;-88
2023/09/16 11:01:47;39811.00;0.13;69.56;0.00;0.00;0.62;;;;;28.20;1.00;;;;;;2276931;61;1133;-89
2023/09/16 11:04:17;54344.00;0.18;94.70;0.00;0.00;0.62;;;;;28.50;1.00;;;;;;2276834;61;1654;-90
2023/09/16 11:06:50;2660.00;0.01;5.23;0.00;0.00;0.62;;;;;29.00;1.00;;;;;;2276836;61;931;-88
2023/09/16 11:09:18;239554.00;0.80;413.98;38944.00;0.13;68.06;;;;;28.50;1.00;;;;;;2276825;61;1420;-88
2023/09/16 11:11:45;39051.00;0.13;68.25;0.00;0.00;0.62;;;;;28.60;1.00;;;;;;2276845;61;988;-91
2023/09/16 11:14:14;149824.00;0.50;259.50;0.00;0.00;0.62;;;;;28.80;1.00;;;;;;2276783;61;910;-87
2023/09/16 11:16:45;99379.00;0.33;172.50;0.00;0.00;0.62;;;;;28.70;1.00;;;;;;2276617;61;2006;-88
2023/09/16 11:19:15;135666.00;0.45;235.10;0.00;0.00;0.62;;;;;28.40;1.00;;;;;;2276646;61;1718;-90
2023/09/16 11:21:43;0.00;0.00;0.62;0.00;0.00;0.62;;;;;28.10;1.00;;;;;;2276579;61;1736;-89
2023/09/16 11:24:12;122535.00;0.41;212.45;0.00;0.00;0.62;;;;;28.10;1.00;;;;;;2276533;61;1800;-86
2023/09/16 11:26:40;36165.00;0.12;63.25;0.00;0.00;0.62;;;;;28.10;1.00;;;;;;2276533;61;987;-87
2023/09/16 11:29:17;88288.00;0.29;153.35;0.00;0.00;0.62;;;;;28.20;1.00;;;;;;2276651;61;1276;-89
2023/09/16 11:31:44;0.00;0.00;0.62;0.00;0.00;0.62;;;;;28.30;1.00;;;;;;2276645;61;1057;-88
2023/09/16 11:34:12;84246.00;0.28;146.37;0.00;0.00;0.62;;;;;28.40;1.00;;;;;;2276538;61;1106;-88
2023/09/16 11:36:44;0.00;0.00;0.62;0.00;0.00;0.62;;;;;28.50;1.00;;;;;;2276541;61;2006;-88
2023/09/16 11:39:18;125467.00;0.42;217.51;0.00;0.00;0.62;;;;;28.50;1.00;;;;;;2276599;61;1691;-89
2023/09/16 11:41:45;153956.00;0.51;266.62;0.00;0.00;0.62;;;;;29.00;1.00;;;;;;2276636;61;1049;-91
2023/09/16 11:44:12;118842.00;0.40;206.08;0.00;0.00;0.62;;;;;29.40;1.00;;;;;;2276584;61;1646;-89
2023/09/16 11:46:39;0.00;0.00;0.62;0.00;0.00;0.62;;;;;29.00;1.00;;;;;;2276485;61;1050;-88
2023/09/16 11:49:07;0.00;0.00;0.62;0.00;0.00;0.62;;;;;28.90;1.00;;;;;;2276572;61;1372;-88
2023/09/16 11:51:36;94261.00;0.31;163.66;0.00;0.00;0.62;;;;;29.00;1.00;;;;;;2276619;61;1016;-90
2023/09/16 11:54:04;12149.00;0.04;21.67;0.00;0.00;0.62;;;;;28.90;1.00;;;;;;2276481;61;1024;-89
2023/09/16 11:56:34;170950.00;0.57;295.90;21696.00;0.07;38.21;;;;;28.70;1.00;;;;;;2276468;61;1990;-88
2023/09/16 11:59:03;92358.00;0.31;160.38;0.00;0.00;0.62;;;;;28.90;1.00;;;;;;2276498;61;1587;-89
2023/09/16 12:01:32;137482.00;0.46;238.23;0.00;0.00;0.62;;;;;29.40;1.00;;;;;;2276640;61;981;-88
2023/09/16 12:04:00;244431.00;0.81;422.37;67051.00;0.22;116.66;;;;;29.60;1.00;;;;;;2276501;61;2044;-88
2023/09/16 12:06:28;0.00;0.00;0.62;0.00;0.00;0.62;;;;;29.00;1.00;;;;;;2276401;61;929;-90
2023/09/16 12:08:57;61577.00;0.21;107.20;0.00;0.00;0.62;;;;;29.10;1.00;;;;;;2276534;61;1587;-90
2023/09/16 12:11:25;0.00;0.00;0.62;0.00;0.00;0.62;;;;;29.50;1.00;;;;;;2276519;61;1001;-88
2023/09/16 12:13:54;10258.00;0.03;18.40;0.00;0.00;0.62;;;;;29.60;1.00;;;;;;2276513;61;1063;-89
2023/09/16 12:16:21;372166.00;1.24;641.96;160256.00;0.53;277.48;;;;;29.40;1.00;;;;;;2276459;61;1926;-90
2023/09/16 12:18:48;126879.00;0.42;219.95;0.00;0.00;0.62;;;;;29.20;1.00;;;;;;2276418;61;1381;-87
2023/09/16 12:21:15;143149.00;0.48;248.00;0.00;0.00;0.62;;;;;28.90;1.00;;;;;;2276410;61;936;-87
2023/09/16 12:23:42;172677.00;0.58;298.88;61151.00;0.20;106.47;;;;;28.80;1.00;;;;;;2276503;61;1533;-90
2023/09/16 12:26:10;87435.00;0.29;151.88;0.00;0.00;0.62;;;;;29.10;1.00;;;;;;2276672;61;1009;-89
2023/09/16 12:28:37;0.00;0.00;0.62;0.00;0.00;0.62;;;;;29.20;1.00;;;;;;2276552;61;1358;-89
2023/09/16 12:31:09;49092.00;0.16;85.62;0.00;0.00;0.62;;;;;29.40;1.00;;;;;;2276380;61;998;-88
2023/09/16 12:33:40;0.00;0.00;0.62;0.00;0.00;0.62;;;;;29.30;1.00;;;;;;2276620;61;1067;-88
2023/09/16 12:36:08;100768.00;0.34;174.90;0.00;0.00;0.62;;;;;29.40;1.00;;;;;;2276500;61;1997;-88
2023/09/16 12:38:36;487989.00;1.63;841.15;78092.00;0.26;135.74;;;;;29.30;1.00;;;;;;2300525;40;3621;-88
2023/09/16 12:41:04;0.00;0.00;0.62;0.00;0.00;0.62;;;;;28.60;1.00;;;;;;2272383;61;1111;-88
2023/09/16 12:43:31;206197.00;0.69;356.59;0.00;0.00;0.62;;;;;28.90;1.00;;;;;;2272465;61;1062;-88
2023/09/16 12:46:01;173002.00;0.58;299.44;0.00;0.00;0.62;;;;;29.30;1.00;;;;;;2272473;61;1433;-88
2023/09/16 12:48:29;122334.00;0.41;212.11;0.00;0.00;0.62;;;;;29.50;1.00;;;;;;2272465;61;1030;-89
2023/09/16 12:50:57;59279.00;0.20;103.23;0.00;0.00;0.62;;;;;29.40;1.00;;;;;;2272284;61;1337;-89
2023/09/16 12:53:25;193544.00;0.65;334.81;0.00;0.00;0.62;;;;;29.40;1.00;;;;;;2272280;61;1763;-90
2023/09/16 12:55:53;30687.00;0.10;53.77;0.00;0.00;0.62;;;;;29.30;1.00;;;;;;2272327;61;1914;-90
2023/09/16 12:58:22;79493.00;0.26;138.16;0.00;0.00;0.62;;;;;29.50;1.00;;;;;;2272483;61;809;-89
2023/09/16 13:00:50;0.00;0.00;0.62;0.00;0.00;0.62;;;;;29.90;1.00;;;;;;2272450;61;1357;-88
2023/09/16 13:03:17;86752.00;0.29;150.70;0.00;0.00;0.62;;;;;30.20;1.00;;;;;;2272448;61;1075;-90
2023/09/16 13:05:50;156628.00;0.52;271.23;0.00;0.00;0.62;;;;;30.50;1.00;;;;;;2272558;61;1755;-90
2023/09/16 13:08:19;58113.00;0.19;101.21;0.00;0.00;0.62;;;;;30.60;1.00;;;;;;2272237;61;1724;-90
2023/09/16 13:10:47;71126.00;0.24;123.71;0.00;0.00;0.62;;;;;29.80;1.00;;;;;;2272232;61;1330;-91
2023/09/16 13:13:15;132565.00;0.44;229.75;0.00;0.00;0.62;;;;;29.90;1.00;;;;;;2272395;61;1004;-88
2023/09/16 13:15:43;145366.00;0.48;251.82;18766.00;0.06;33.13;;;;;30.10;1.00;;;;;;2272252;61;2002;-87
2023/09/16 13:18:10;140565.00;0.47;243.54;0.00;0.00;0.62;;;;;30.30;1.00;;;;;;2272349;61;1713;-88
2023/09/16 13:20:40;200664.00;0.67;347.07;0.00;0.00;0.62;;;;;30.00;1.00;;;;;;2272187;61;1385;-90
2023/09/16 13:23:16;966656.00;3.22;1673.50;431684.00;1.44;744.28;;;;;29.80;1.00;;;;;;2272279;61;1165;-90
2023/09/16 13:25:43;116221.00;0.39;201.56;0.00;0.00;0.62;;;;;29.70;1.00;;;;;;2272241;61;1745;-90
2023/09/16 13:28:12;125751.00;0.42;218.00;0.00;0.00;0.62;;;;;29.60;1.00;;;;;;2272208;61;1000;-90
2023/09/16 13:30:40;235338.00;0.78;406.73;45436.00;0.15;79.29;;;;;29.60;1.00;;;;;;2295968;55;3853;-90
2023/09/16 13:35:40;935872.00;3.12;1619.21;0.00;0.00;0.62;;;;;29.90;1.00;;;;;;2278163;61;1970;-88
2023/09/16 13:38:10;164136.00;0.55;284.17;0.00;0.00;0.62;;;;;29.80;1.00;;;;;;2276309;61;956;-89
2023/09/16 13:40:38;157028.00;0.52;271.92;0.00;0.00;0.62;;;;;29.90;1.00;;;;;;2276289;61;1417;-88
2023/09/16 13:43:06;156361.00;0.52;270.77;0.00;0.00;0.62;;;;;29.70;1.00;;;;;;2276312;61;1023;-89
2023/09/16 13:45:34;40467.00;0.13;70.70;0.00;0.00;0.62;;;;;29.40;1.00;;;;;;2276409;61;929;-89
2023/09/16 13:48:12;17959.00;0.06;31.74;0.00;0.00;0.62;;;;;29.50;1.00;;;;;;2276289;61;2294;-89
2023/09/16 13:50:41;65885.00;0.22;114.65;0.00;0.00;0.62;;;;;29.80;1.00;;;;;;2276418;61;1384;-88
2023/09/16 13:53:11;297882.00;0.99;514.28;0.00;0.00;0.62;;;;;29.90;1.00;;;;;;2276446;61;1124;-88
2023/09/16 13:55:38;925935.00;3.09;1601.72;272060.00;0.91;469.89;;;;;30.30;1.00;;;;;;2276384;61;2000;-89
2023/09/16 13:58:06;541694.00;1.81;933.64;196912.00;0.66;340.61;;;;;30.50;1.00;;;;;;2276395;61;903;-88
2023/09/16 14:00:33;429802.00;1.43;741.05;12617.00;0.04;22.48;;;;;30.70;1.00;;;;;;2276123;61;1294;-89
2023/09/16 14:10:35;711514.00;2.37;1227.21;1404.00;0.00;3.05;;;;;30.60;1.00;;;;;;2278341;61;1609;-89
2023/09/16 14:13:06;2641256.00;8.80;5034.94;1138196.00;3.79;1978.87;;;;;30.60;1.00;;;;;;2279897;55;3771;-88
2023/09/16 14:15:34;71364.00;0.24;124.12;0.00;0.00;0.62;;;;;30.90;1.00;;;;;;2281153;61;1988;-90
2023/09/16 14:18:03;61117.00;0.20;106.41;0.00;0.00;0.62;;;;;30.80;1.00;;;;;;2280935;61;2254;-89
2023/09/16 14:20:30;21924.00;0.07;38.60;0.00;0.00;0.62;;;;;30.40;1.00;;;;;;2280927;61;1681;-88
2023/09/16 14:33:06;318686.00;1.06;550.04;0.00;0.00;0.62;;;;;30.70;1.00;;;;;;2278867;61;1234;-89
2023/09/16 14:35:34;153625.00;0.51;266.05;0.00;0.00;0.62;;;;;30.60;1.00;;;;;;2276859;61;1998;-90
2023/09/16 14:38:03;505216.00;1.68;870.80;196157.00;0.65;339.31;;;;;30.90;1.00;;;;;;2276853;61;1723;-88
2023/09/16 14:40:30;63318.00;0.21;110.21;0.00;0.00;0.62;;;;;31.40;1.00;;;;;;2276797;61;1269;-88
2023/09/16 14:42:57;78358.00;0.26;136.20;0.00;0.00;0.62;;;;;31.50;1.00;;;;;;2276997;61;1571;-89
2023/09/16 14:45:24;66921.00;0.22;116.44;0.00;0.00;0.62;;;;;31.10;1.00;;;;;;2276912;61;1036;-90
2023/09/16 14:47:51;0.00;0.00;0.62;0.00;0.00;0.62;;;;;30.70;1.00;;;;;;2276860;61;978;-90
2023/09/16 14:52:49;1222168.00;4.07;2130.35;0.00;0.00;0.62;;;;;31.00;1.00;;;;;;1981616;56;3595;-90
2023/09/16 14:55:17;73193.00;0.24;127.28;0.00;0.00;0.62;;;;;31.30;1.00;;;;;;2285477;61;1081;-88
2023/09/16 14:57:44;0.00;0.00;0.62;0.00;0.00;0.62;;;;;31.30;1.00;;;;;;2285498;61;1917;-90
2023/09/16 15:00:12;0.00;0.00;0.62;0.00;0.00;0.62;;;;;31.40;1.00;;;;;;2285439;61;1442;-89
2023/09/16 15:02:38;117677288.00;392.26;66009924.00;0.00;0.00;0.62;;;;;31.00;1.00;;;;;;2285507;61;1082;-88
2023/09/16 15:05:06;60967.00;0.20;106.15;0.00;0.00;0.62;;;;;30.40;1.00;;;;;;2285547;61;1091;-89
2023/09/16 15:07:33;14860.00;0.05;26.37;0.00;0.00;0.62;;;;;30.10;1.00;;;;;;2285452;61;1529;-89
2023/09/16 15:10:01;27689.00;0.09;48.58;0.00;0.00;0.62;;;;;30.40;1.00;;;;;;2285437;61;1285;-89
2023/09/16 15:12:28;115411.00;0.38;200.17;0.00;0.00;0.62;;;;;30.30;1.00;;;;;;2285500;61;933;-90
2023/09/16 15:14:55;119540.00;0.40;207.29;0.00;0.00;0.62;;;;;30.00;1.00;;;;;;2285251;61;1015;-89
2023/09/16 15:17:23;169689.00;0.57;293.73;0.00;0.00;0.62;;;;;30.30;1.00;;;;;;2285427;61;1997;-89
2023/09/16 15:19:50;0.00;0.00;0.62;0.00;0.00;0.62;;;;;30.40;1.00;;;;;;2285267;61;1603;-89
2023/09/16 15:22:17;0.00;0.00;0.62;0.00;0.00;0.62;;;;;30.40;1.00;;;;;;2285538;61;1016;-90
2023/09/16 15:24:44;0.00;0.00;0.62;0.00;0.00;0.62;;;;;30.20;1.00;;;;;;2285422;61;1172;-89
2023/09/16 15:27:13;66695.00;0.22;116.05;0.00;0.00;0.62;;;;;30.30;1.00;;;;;;2287357;39;3578;-89
2023/09/16 15:29:39;74551.00;0.25;129.62;0.00;0.00;0.62;;;;;30.50;1.00;;;;;;2281272;61;1726;-90
2023/09/16 15:32:06;226016.00;0.75;390.69;0.00;0.00;0.62;;;;;30.50;1.00;;;;;;2281224;61;1670;-88
2023/09/16 15:34:33;657779.00;2.19;1134.10;204434.00;0.68;353.56;;;;;30.50;1.00;;;;;;2281273;61;1727;-90
2023/09/16 15:37:00;0.00;0.00;0.62;0.00;0.00;0.62;;;;;30.10;1.00;;;;;;2281244;61;1915;-89
2023/09/16 15:39:27;212693.00;0.71;367.77;30523.00;0.10;53.49;;;;;29.70;1.00;;;;;;2281103;61;1754;-89
2023/09/16 15:41:54;271516.00;0.91;468.95;108615.00;0.36;188.44;;;;;29.50;1.00;;;;;;2281203;61;1078;-90
2023/09/16 15:44:23;83793.00;0.28;145.59;0.00;0.00;0.62;;;;;29.60;1.00;;;;;;2281231;61;1008;-90
2023/09/16 15:46:50;43380.00;0.14;75.74;0.00;0.00;0.62;;;;;29.70;1.00;;;;;;2281240;61;1130;-90
2023/09/16 15:49:17;35665.00;0.12;62.39;0.00;0.00;0.62;;;;;29.80;1.00;;;;;;2281194;61;1294;-88
2023/09/16 15:51:43;45835.00;0.15;79.98;0.00;0.00;0.62;;;;;29.60;1.00;;;;;;2281147;61;989;-89
2023/09/16 15:54:10;39485.00;0.13;69.00;0.00;0.00;0.62;;;;;29.50;1.00;;;;;;2281187;61;1252;-90
2023/09/16 15:56:37;0.00;0.00;0.62;0.00;0.00;0.62;;;;;29.60;1.00;;;;;;2281203;61;1923;-89
2023/09/16 15:59:04;39649.00;0.13;69.28;0.00;0.00;0.62;;;;;29.40;1.00;;;;;;2281151;61;1419;-90
2023/09/16 16:01:32;62190.00;0.21;108.26;0.00;0.00;0.62;;;;;29.40;1.00;;;;;;2281132;61;1655;-90
2023/09/16 16:03:59;164292.00;0.55;284.43;0.00;0.00;0.62;;;;;29.70;1.00;;;;;;2281116;61;1612;-89
2023/09/16 16:06:26;156503.00;0.52;271.01;0.00;0.00;0.62;;;;;29.70;1.00;;;;;;2281227;61;1034;-89
2023/09/16 16:08:55;180617.00;0.60;312.55;24869.00;0.08;43.70;;;;;29.90;1.00;;;;;;2281231;61;1294;-89
2023/09/16 16:11:22;430255.00;1.43;741.82;204189.00;0.68;353.13;;;;;29.90;1.00;;;;;;2281111;61;1090;-90
2023/09/16 16:13:49;0.00;0.00;0.62;0.00;0.00;0.62;;;;;30.00;1.00;;;;;;2281167;61;1030;-89
2023/09/16 16:16:16;137332.00;0.46;237.97;0.00;0.00;0.62;;;;;30.00;1.00;;;;;;2281061;61;1919;-87
2023/09/16 16:18:44;122811.00;0.41;212.93;0.00;0.00;0.62;;;;;29.90;1.00;;;;;;2281176;61;1341;-89
2023/09/16 16:21:11;27085.00;0.09;47.54;0.00;0.00;0.62;;;;;30.00;1.00;;;;;;2281131;61;1014;-89
2023/09/16 16:23:38;111377.00;0.37;193.21;0.00;0.00;0.62;;;;;30.00;1.00;;;;;;2281182;61;979;-89
2023/09/16 16:26:05;136406.00;0.45;236.37;0.00;0.00;0.62;;;;;30.10;1.00;;;;;;2281027;61;1093;-88
2023/09/16 16:28:32;217698.00;0.73;376.38;108281.00;0.36;187.86;;;;;30.10;1.00;;;;;;2281071;61;1158;-89
2023/09/16 16:30:59;122037.00;0.41;211.60;0.00;0.00;0.62;;;;;30.10;1.00;;;;;;2281062;61;1583;-89
2023/09/16 16:33:25;0.00;0.00;0.62;0.00;0.00;0.62;;;;;29.80;1.00;;;;;;2281229;61;1104;-89
2023/09/16 16:35:54;149533.00;0.50;259.00;47695.00;0.16;83.20;;;;;29.60;1.00;;;;;;2281150;61;1075;-89
2023/09/16 16:38:21;77516.00;0.26;134.75;0.00;0.00;0.62;;;;;29.60;1.00;;;;;;2281161;61;1935;-88
2023/09/16 16:40:48;150807.00;0.50;261.20;0.00;0.00;0.62;;;;;29.80;1.00;;;;;;2281026;61;1598;-88
2023/09/16 16:43:15;51453.00;0.17;89.70;0.00;0.00;0.62;;;;;29.70;1.00;;;;;;2281155;61;1004;-90
2023/09/16 16:45:42;44149.00;0.15;77.07;0.00;0.00;0.62;;;;;29.70;1.00;;;;;;2281095;61;2367;-88
2023/09/16 16:48:08;87867.00;0.29;152.62;0.00;0.00;0.62;;;;;29.50;1.00;;;;;;2281074;61;1587;-88
2023/09/16 16:50:36;214492.00;0.71;370.87;0.00;0.00;0.62;;;;;29.40;1.00;;;;;;2280993;61;1496;-89
2023/09/16 16:53:04;98302.00;0.33;170.64;0.00;0.00;0.62;;;;;29.40;1.00;;;;;;2281132;61;974;-89
2023/09/16 16:55:32;83646.00;0.28;145.33;0.00;0.00;0.62;;;;;29.50;1.00;;;;;;2281128;61;1106;-89
2023/09/16 16:57:58;0.00;0.00;0.62;0.00;0.00;0.62;;;;;29.50;1.00;;;;;;2280327;61;2002;-89
2023/09/16 17:00:25;65811.00;0.22;114.52;0.00;0.00;0.62;;;;;29.30;1.00;;;;;;2280383;61;1293;-90
2023/09/16 17:02:53;37166.00;0.12;64.98;0.00;0.00;0.62;;;;;29.30;1.00;;;;;;2280341;61;1727;-88
2023/09/16 17:05:22;0.00;0.00;0.62;0.00;0.00;0.62;;;;;29.40;1.00;;;;;;2280403;61;1047;-89
2023/09/16 17:07:48;113854.00;0.38;197.48;0.00;0.00;0.62;;;;;29.40;1.00;;;;;;2280258;61;1490;-88
2023/09/16 17:10:20;33676.00;0.11;58.95;0.00;0.00;0.62;;;;;29.60;1.00;;;;;;2280337;61;1342;-87
2023/09/16 17:12:46;171273.00;0.57;296.46;0.00;0.00;0.62;;;;;29.80;1.00;;;;;;2280315;61;1558;-89
2023/09/16 17:15:14;137052.00;0.46;237.49;0.00;0.00;0.62;;;;;29.80;1.00;;;;;;2280415;61;1071;-88
2023/09/16 17:17:41;49601.00;0.17;86.50;0.00;0.00;0.62;;;;;29.80;1.00;;;;;;2280336;61;1912;-88
2023/09/16 17:20:09;62879.00;0.21;109.45;0.00;0.00;0.62;;;;;29.80;1.00;;;;;;2280346;61;1372;-87
2023/09/16 17:22:36;143152.00;0.48;248.00;0.00;0.00;0.62;;;;;29.70;1.00;;;;;;2280323;61;1082;-88
2023/09/16 17:25:04;42471.00;0.14;74.16;0.00;0.00;0.62;;;;;29.70;1.00;;;;;;2280363;61;996;-89
2023/09/16 17:27:33;0.00;0.00;0.62;0.00;0.00;0.62;;;;;29.60;1.00;;;;;;2280298;61;1043;-87
2023/09/16 17:30:01;0.00;0.00;0.62;0.00;0.00;0.62;;;;;29.50;1.00;;;;;;2280271;61;1276;-87
2023/09/16 17:32:27;35931.00;0.12;62.85;0.00;0.00;0.62;;;;;29.40;1.00;;;;;;2280318;61;932;-88
2023/09/16 17:34:54;0.00;0.00;0.62;0.00;0.00;0.62;;;;;29.10;1.00;;;;;;2280244;61;1172;-88
2023/09/16 17:37:21;116538.00;0.39;202.11;0.00;0.00;0.62;;;;;29.10;1.00;;;;;;2280280;61;2026;-88
2023/09/16 17:39:48;372234.00;1.24;642.08;62246.00;0.21;108.36;;;;;29.00;1.00;;;;;;2280996;61;1386;-90
2023/09/16 17:42:15;68750.00;0.23;119.60;0.00;0.00;0.62;;;;;28.90;1.00;;;;;;2280946;61;1013;-89
2023/09/16 17:44:43;126251.00;0.42;218.86;0.00;0.00;0.62;;;;;28.70;1.00;;;;;;2281010;61;1062;-89
2023/09/16 17:47:11;157450.00;0.52;272.65;46873.00;0.16;81.78;;;;;28.60;1.00;;;;;;2280885;61;1075;-86
2023/09/16 17:49:39;115337.00;0.38;200.04;33148.00;0.11;58.03;;;;;28.50;1.00;;;;;;2280840;61;1643;-89
2023/09/16 17:52:07;86512.00;0.29;150.28;0.00;0.00;0.62;;;;;28.60;1.00;;;;;;2280891;61;1769;-89
2023/09/16 17:54:34;77435.00;0.26;134.61;0.00;0.00;0.62;;;;;28.70;1.00;;;;;;2280778;61;1629;-90
2023/09/16 17:57:01;99198.00;0.33;172.19;0.00;0.00;0.62;;;;;28.80;1.00;;;;;;2280789;61;2008;-89
2023/09/16 17:59:28;117065.00;0.39;203.02;0.00;0.00;0.62;;;;;28.80;1.00;;;;;;2280899;61;1359;-89
2023/09/16 18:01:56;679682.00;2.27;1172.02;371861.00;1.24;641.44;;;;;28.80;1.00;;;;;;2280749;61;923;-88
2023/09/16 18:04:23;50506.00;0.17;88.06;0.00;0.00;0.62;;;;;28.70;1.00;;;;;;2280819;61;1038;-90
2023/09/16 18:06:50;113054.00;0.38;196.10;0.00;0.00;0.62;;;;;28.70;1.00;;;;;;2280858;61;1735;-89
2023/09/16 18:09:17;67538.00;0.23;117.51;0.00;0.00;0.62;;;;;28.60;1.00;;;;;;2280735;61;1722;-89
2023/09/16 18:11:44;35771.00;0.12;62.57;0.00;0.00;0.62;;;;;28.50;1.00;;;;;;2280906;61;937;-89
2023/09/16 18:14:11;219667.00;0.73;379.77;0.00;0.00;0.62;;;;;28.40;1.00;;;;;;2280800;61;1714;-87
2023/09/16 18:16:38;240952.00;0.80;416.39;135869.00;0.45;235.45;;;;;28.50;1.00;;;;;;2280858;61;1925;-88
2023/09/16 18:19:06;227307.00;0.76;392.92;11349.00;0.04;20.29;;;;;28.50;1.00;;;;;;2280921;61;1383;-89
2023/09/16 18:21:33;185627.00;0.62;321.18;0.00;0.00;0.62;;;;;28.40;1.00;;;;;;2280871;61;1277;-88
2023/09/16 18:24:00;102342.00;0.34;177.61;0.00;0.00;0.62;;;;;28.20;1.00;;;;;;2280808;61;1592;-88
2023/09/16 18:26:27;213130.00;0.71;368.52;0.00;0.00;0.62;;;;;28.20;1.00;;;;;;2280850;61;1594;-88
2023/09/16 18:28:54;131135.00;0.44;227.29;0.00;0.00;0.62;;;;;28.20;1.00;;;;;;2280760;61;1394;-87
2023/09/16 18:31:21;0.00;0.00;0.62;0.00;0.00;0.62;;;;;28.10;1.00;;;;;;2280803;61;996;-87
2023/09/16 18:33:48;41384.00;0.14;72.28;0.00;0.00;0.62;;;;;28.00;1.00;;;;;;2280822;61;1000;-88
2023/09/16 18:36:16;65228.00;0.22;113.51;0.00;0.00;0.62;;;;;28.00;1.00;;;;;;2280742;61;1033;-87
2023/09/16 18:38:43;204352.00;0.68;353.41;0.00;0.00;0.62;;;;;28.00;1.00;;;;;;2280712;61;2021;-89
2023/09/16 18:41:10;62669.00;0.21;109.09;0.00;0.00;0.62;;;;;27.90;1.00;;;;;;2280881;61;1185;-89
2023/09/16 18:43:39;142977.00;0.48;247.70;0.00;0.00;0.62;;;;;27.60;1.00;;;;;;2280828;61;1020;-88
2023/09/16 18:46:06;114122.00;0.38;197.94;0.00;0.00;0.62;;;;;27.60;1.00;;;;;;2280797;61;1538;-90